sensor_id;sensor_type;location;lat;lon;timestamp;P1;durP1;ratioP1;P2;durP2;ratioP2
14292;SDS011;62290;59.420;17.842;2022-12-07T00:01:18;2.85;;;1.33;;
14292;SDS011;62290;59.420;17.842;2022-12-07T00:03:49;2.60;;;1.55;;
14292;SDS011;62290;59.420;17.842;2022-12-07T00:06:20;2.70;;;1.30;;
14292;SDS011;62290;59.420;17.842;2022-12-07T00:08:48;2.60;;;1.35;;
14292;SDS011;62290;59.420;17.842;2022-12-07T00:11:17;3.33;;;1.70;;
14292;SDS011;62290;59.420;17.842;2022-12-07T00:13:46;2.80;;;1.60;;
14292;SDS011;62290;59.420;17.842;2022-12-07T00:16:19;2.30;;;1.40;;
14292;SDS011;62290;59.420;17.842;2022-12-07T00:18:48;2.75;;;1.70;;
14292;SDS011;62290;59.420;17.842;2022-12-07T00:21:17;2.78;;;1.55;;
14292;SDS011;62290;59.420;17.842;2022-12-07T00:23:49;2.47;;;1.75;;
14292;SDS011;62290;59.420;17.842;2022-12-07T00:26:18;2.38;;;1.55;;
14292;SDS011;62290;59.420;17.842;2022-12-07T00:28:48;2.10;;;1.50;;
14292;SDS011;62290;59.420;17.842;2022-12-07T00:31:18;2.67;;;1.60;;
14292;SDS011;62290;59.420;17.842;2022-12-07T00:33:47;2.28;;;1.50;;
14292;SDS011;62290;59.420;17.842;2022-12-07T00:36:16;2.65;;;1.58;;
14292;SDS011;62290;59.420;17.842;2022-12-07T00:38:54;2.67;;;1.70;;
14292;SDS011;62290;59.420;17.842;2022-12-07T00:41:23;2.70;;;1.77;;
14292;SDS011;62290;59.420;17.842;2022-12-07T00:43:52;6.38;;;1.65;;
14292;SDS011;62290;59.420;17.842;2022-12-07T00:46:20;6.35;;;1.75;;
14292;SDS011;62290;59.420;17.842;2022-12-07T00:48:49;5.90;;;2.00;;
14292;SDS011;62290;59.420;17.842;2022-12-07T00:51:18;4.47;;;1.60;;
14292;SDS011;62290;59.420;17.842;2022-12-07T00:53:48;4.00;;;1.70;;
14292;SDS011;62290;59.420;17.842;2022-12-07T00:56:18;4.78;;;1.90;;
14292;SDS011;62290;59.420;17.842;2022-12-07T00:58:52;3.70;;;2.00;;
14292;SDS011;62290;59.420;17.842;2022-12-07T01:01:22;5.72;;;1.95;;
14292;SDS011;62290;59.420;17.842;2022-12-07T01:03:50;2.20;;;1.65;;
14292;SDS011;62290;59.420;17.842;2022-12-07T01:06:19;5.55;;;1.63;;
14292;SDS011;62290;59.420;17.842;2022-12-07T01:08:48;6.40;;;1.75;;
14292;SDS011;62290;59.420;17.842;2022-12-07T01:11:18;13.00;;;2.13;;
14292;SDS011;62290;59.420;17.842;2022-12-07T01:13:49;3.60;;;1.65;;
14292;SDS011;62290;59.420;17.842;2022-12-07T01:16:19;4.13;;;1.92;;
14292;SDS011;62290;59.420;17.842;2022-12-07T01:18:48;3.65;;;1.50;;
14292;SDS011;62290;59.420;17.842;2022-12-07T01:21:18;2.60;;;1.48;;
14292;SDS011;62290;59.420;17.842;2022-12-07T01:23:48;2.75;;;1.55;;
14292;SDS011;62290;59.420;17.842;2022-12-07T01:26:18;3.40;;;1.63;;
14292;SDS011;62290;59.420;17.842;2022-12-07T01:28:47;3.63;;;1.40;;
14292;SDS011;62290;59.420;17.842;2022-12-07T01:31:16;3.08;;;1.40;;
14292;SDS011;62290;59.420;17.842;2022-12-07T01:33:47;4.13;;;2.28;;
14292;SDS011;62290;59.420;17.842;2022-12-07T01:36:17;3.47;;;1.50;;
14292;SDS011;62290;59.420;17.842;2022-12-07T01:38:47;2.30;;;1.40;;
14292;SDS011;62290;59.420;17.842;2022-12-07T01:41:19;3.20;;;1.63;;
14292;SDS011;62290;59.420;17.842;2022-12-07T01:44:11;2.33;;;1.55;;
14292;SDS011;62290;59.420;17.842;2022-12-07T01:46:44;2.65;;;1.58;;
14292;SDS011;62290;59.420;17.842;2022-12-07T01:49:15;2.08;;;1.50;;
14292;SDS011;62290;59.420;17.842;2022-12-07T01:51:48;2.42;;;1.38;;
14292;SDS011;62290;59.420;17.842;2022-12-07T01:54:18;3.75;;;1.50;;
14292;SDS011;62290;59.420;17.842;2022-12-07T01:56:50;2.28;;;1.30;;
14292;SDS011;62290;59.420;17.842;2022-12-07T01:59:22;5.80;;;1.38;;
14292;SDS011;62290;59.420;17.842;2022-12-07T02:01:52;1.98;;;1.33;;
14292;SDS011;62290;59.420;17.842;2022-12-07T02:04:22;2.63;;;1.40;;
14292;SDS011;62290;59.420;17.842;2022-12-07T02:06:51;2.63;;;1.48;;
14292;SDS011;62290;59.420;17.842;2022-12-07T02:09:21;2.85;;;1.20;;
14292;SDS011;62290;59.420;17.842;2022-12-07T02:11:50;1.98;;;1.17;;
14292;SDS011;62290;59.420;17.842;2022-12-07T02:14:19;2.83;;;1.27;;
14292;SDS011;62290;59.420;17.842;2022-12-07T02:16:51;2.20;;;1.38;;
14292;SDS011;62290;59.420;17.842;2022-12-07T02:19:39;2.35;;;1.20;;
14292;SDS011;62290;59.420;17.842;2022-12-07T02:22:33;3.20;;;1.42;;
14292;SDS011;62290;59.420;17.842;2022-12-07T02:25:19;2.60;;;1.00;;
14292;SDS011;62290;59.420;17.842;2022-12-07T02:27:57;1.30;;;1.15;;
14292;SDS011;62290;59.420;17.842;2022-12-07T02:30:32;3.65;;;1.75;;
14292;SDS011;62290;59.420;17.842;2022-12-07T02:33:07;1.60;;;1.20;;
14292;SDS011;62290;59.420;17.842;2022-12-07T02:35:42;2.85;;;1.08;;
14292;SDS011;62290;59.420;17.842;2022-12-07T02:38:16;2.45;;;1.35;;
14292;SDS011;62290;59.420;17.842;2022-12-07T02:40:50;3.03;;;1.17;;
14292;SDS011;62290;59.420;17.842;2022-12-07T02:43:23;2.63;;;1.23;;
14292;SDS011;62290;59.420;17.842;2022-12-07T02:45:55;4.63;;;1.33;;
14292;SDS011;62290;59.420;17.842;2022-12-07T02:48:27;2.42;;;1.23;;
14292;SDS011;62290;59.420;17.842;2022-12-07T02:50:56;3.50;;;1.58;;
14292;SDS011;62290;59.420;17.842;2022-12-07T02:53:31;2.72;;;1.58;;
14292;SDS011;62290;59.420;17.842;2022-12-07T02:56:00;2.78;;;1.10;;
14292;SDS011;62290;59.420;17.842;2022-12-07T02:58:36;2.65;;;1.42;;
14292;SDS011;62290;59.420;17.842;2022-12-07T03:01:20;3.00;;;1.50;;
14292;SDS011;62290;59.420;17.842;2022-12-07T03:03:58;2.40;;;1.50;;
14292;SDS011;62290;59.420;17.842;2022-12-07T03:06:38;3.00;;;1.40;;
14292;SDS011;62290;59.420;17.842;2022-12-07T03:09:14;6.28;;;1.65;;
14292;SDS011;62290;59.420;17.842;2022-12-07T03:11:52;9.93;;;2.95;;
14292;SDS011;62290;59.420;17.842;2022-12-07T03:14:29;5.50;;;1.75;;
14292;SDS011;62290;59.420;17.842;2022-12-07T03:17:02;3.53;;;1.15;;
14292;SDS011;62290;59.420;17.842;2022-12-07T03:19:36;2.92;;;1.38;;
14292;SDS011;62290;59.420;17.842;2022-12-07T03:22:05;3.72;;;2.03;;
14292;SDS011;62290;59.420;17.842;2022-12-07T03:24:38;4.20;;;1.52;;
14292;SDS011;62290;59.420;17.842;2022-12-07T03:27:09;4.10;;;1.55;;
14292;SDS011;62290;59.420;17.842;2022-12-07T03:29:43;6.35;;;1.45;;
14292;SDS011;62290;59.420;17.842;2022-12-07T03:32:19;4.50;;;1.42;;
14292;SDS011;62290;59.420;17.842;2022-12-07T03:34:51;3.78;;;1.50;;
14292;SDS011;62290;59.420;17.842;2022-12-07T03:37:26;3.30;;;1.55;;
14292;SDS011;62290;59.420;17.842;2022-12-07T03:40:01;2.22;;;1.40;;
14292;SDS011;62290;59.420;17.842;2022-12-07T03:42:34;2.88;;;1.50;;
14292;SDS011;62290;59.420;17.842;2022-12-07T03:45:02;3.72;;;1.50;;
14292;SDS011;62290;59.420;17.842;2022-12-07T03:47:35;4.22;;;1.48;;
14292;SDS011;62290;59.420;17.842;2022-12-07T03:50:09;3.17;;;1.77;;
14292;SDS011;62290;59.420;17.842;2022-12-07T03:52:43;4.82;;;1.73;;
14292;SDS011;62290;59.420;17.842;2022-12-07T03:55:17;2.35;;;1.23;;
14292;SDS011;62290;59.420;17.842;2022-12-07T03:57:50;3.60;;;1.50;;
14292;SDS011;62290;59.420;17.842;2022-12-07T04:00:22;3.20;;;1.33;;
14292;SDS011;62290;59.420;17.842;2022-12-07T04:02:52;5.80;;;1.40;;
14292;SDS011;62290;59.420;17.842;2022-12-07T04:05:20;4.00;;;1.25;;
14292;SDS011;62290;59.420;17.842;2022-12-07T04:07:49;5.47;;;1.45;;
14292;SDS011;62290;59.420;17.842;2022-12-07T04:10:17;2.00;;;1.38;;
14292;SDS011;62290;59.420;17.842;2022-12-07T04:12:45;3.70;;;1.42;;
14292;SDS011;62290;59.420;17.842;2022-12-07T04:15:13;3.30;;;1.27;;
14292;SDS011;62290;59.420;17.842;2022-12-07T04:17:41;3.17;;;1.50;;
14292;SDS011;62290;59.420;17.842;2022-12-07T04:20:11;3.45;;;1.20;;
14292;SDS011;62290;59.420;17.842;2022-12-07T04:22:40;13.88;;;1.35;;
14292;SDS011;62290;59.420;17.842;2022-12-07T04:25:08;3.45;;;1.23;;
14292;SDS011;62290;59.420;17.842;2022-12-07T04:27:36;4.72;;;1.27;;
14292;SDS011;62290;59.420;17.842;2022-12-07T04:30:04;3.90;;;1.50;;
14292;SDS011;62290;59.420;17.842;2022-12-07T04:32:33;6.15;;;1.52;;
14292;SDS011;62290;59.420;17.842;2022-12-07T04:35:01;6.32;;;1.60;;
14292;SDS011;62290;59.420;17.842;2022-12-07T04:37:30;3.33;;;1.38;;
14292;SDS011;62290;59.420;17.842;2022-12-07T04:39:58;3.00;;;1.25;;
14292;SDS011;62290;59.420;17.842;2022-12-07T04:42:27;5.88;;;1.30;;
14292;SDS011;62290;59.420;17.842;2022-12-07T04:44:55;4.10;;;1.08;;
14292;SDS011;62290;59.420;17.842;2022-12-07T04:47:23;2.35;;;1.17;;
14292;SDS011;62290;59.420;17.842;2022-12-07T04:49:50;1.75;;;1.23;;
14292;SDS011;62290;59.420;17.842;2022-12-07T04:52:18;5.28;;;1.42;;
14292;SDS011;62290;59.420;17.842;2022-12-07T04:54:48;6.57;;;1.20;;
14292;SDS011;62290;59.420;17.842;2022-12-07T04:57:16;2.05;;;1.10;;
14292;SDS011;62290;59.420;17.842;2022-12-07T04:59:44;2.97;;;1.13;;
14292;SDS011;62290;59.420;17.842;2022-12-07T05:02:12;2.97;;;1.20;;
14292;SDS011;62290;59.420;17.842;2022-12-07T05:04:40;3.30;;;0.93;;
14292;SDS011;62290;59.420;17.842;2022-12-07T05:07:08;1.58;;;1.08;;
14292;SDS011;62290;59.420;17.842;2022-12-07T05:09:36;2.65;;;1.00;;
14292;SDS011;62290;59.420;17.842;2022-12-07T05:12:05;2.25;;;1.10;;
14292;SDS011;62290;59.420;17.842;2022-12-07T05:14:33;1.83;;;1.00;;
14292;SDS011;62290;59.420;17.842;2022-12-07T05:17:01;2.83;;;0.98;;
14292;SDS011;62290;59.420;17.842;2022-12-07T05:19:30;2.95;;;1.33;;
14292;SDS011;62290;59.420;17.842;2022-12-07T05:21:58;7.72;;;1.20;;
14292;SDS011;62290;59.420;17.842;2022-12-07T05:24:26;3.88;;;1.50;;
14292;SDS011;62290;59.420;17.842;2022-12-07T05:26:54;3.30;;;1.10;;
14292;SDS011;62290;59.420;17.842;2022-12-07T05:29:23;2.67;;;1.15;;
14292;SDS011;62290;59.420;17.842;2022-12-07T05:31:51;2.15;;;0.90;;
14292;SDS011;62290;59.420;17.842;2022-12-07T05:34:19;3.45;;;1.10;;
14292;SDS011;62290;59.420;17.842;2022-12-07T05:36:47;3.25;;;1.45;;
14292;SDS011;62290;59.420;17.842;2022-12-07T05:39:16;5.78;;;1.27;;
14292;SDS011;62290;59.420;17.842;2022-12-07T05:41:44;3.22;;;1.10;;
14292;SDS011;62290;59.420;17.842;2022-12-07T05:44:31;2.25;;;1.15;;
14292;SDS011;62290;59.420;17.842;2022-12-07T05:46:59;2.00;;;1.08;;
14292;SDS011;62290;59.420;17.842;2022-12-07T05:49:27;3.28;;;1.00;;
14292;SDS011;62290;59.420;17.842;2022-12-07T05:51:55;2.22;;;1.23;;
14292;SDS011;62290;59.420;17.842;2022-12-07T05:54:23;2.15;;;1.10;;
14292;SDS011;62290;59.420;17.842;2022-12-07T05:56:51;2.08;;;1.05;;
14292;SDS011;62290;59.420;17.842;2022-12-07T05:59:19;1.35;;;0.88;;
14292;SDS011;62290;59.420;17.842;2022-12-07T06:01:55;1.80;;;1.20;;
14292;SDS011;62290;59.420;17.842;2022-12-07T06:04:26;2.00;;;1.20;;
14292;SDS011;62290;59.420;17.842;2022-12-07T06:06:56;1.58;;;1.10;;
14292;SDS011;62290;59.420;17.842;2022-12-07T06:09:25;3.63;;;1.05;;
14292;SDS011;62290;59.420;17.842;2022-12-07T06:11:54;5.30;;;1.00;;
14292;SDS011;62290;59.420;17.842;2022-12-07T06:14:40;1.77;;;1.05;;
14292;SDS011;62290;59.420;17.842;2022-12-07T06:17:10;1.63;;;1.20;;
14292;SDS011;62290;59.420;17.842;2022-12-07T06:19:38;1.55;;;1.13;;
14292;SDS011;62290;59.420;17.842;2022-12-07T06:22:07;1.70;;;1.15;;
14292;SDS011;62290;59.420;17.842;2022-12-07T06:24:35;2.22;;;1.08;;
14292;SDS011;62290;59.420;17.842;2022-12-07T06:27:04;1.92;;;1.20;;
14292;SDS011;62290;59.420;17.842;2022-12-07T06:29:32;1.42;;;0.93;;
14292;SDS011;62290;59.420;17.842;2022-12-07T06:32:00;2.17;;;1.10;;
14292;SDS011;62290;59.420;17.842;2022-12-07T06:34:30;1.20;;;1.00;;
14292;SDS011;62290;59.420;17.842;2022-12-07T06:36:58;3.35;;;0.90;;
14292;SDS011;62290;59.420;17.842;2022-12-07T06:39:26;1.45;;;1.00;;
14292;SDS011;62290;59.420;17.842;2022-12-07T06:41:55;1.48;;;0.95;;
14292;SDS011;62290;59.420;17.842;2022-12-07T06:44:24;2.53;;;0.98;;
14292;SDS011;62290;59.420;17.842;2022-12-07T06:46:52;1.65;;;0.95;;
14292;SDS011;62290;59.420;17.842;2022-12-07T06:49:42;2.00;;;0.90;;
14292;SDS011;62290;59.420;17.842;2022-12-07T06:52:10;1.52;;;1.15;;
14292;SDS011;62290;59.420;17.842;2022-12-07T06:54:38;2.35;;;1.00;;
14292;SDS011;62290;59.420;17.842;2022-12-07T06:57:06;2.85;;;1.05;;
14292;SDS011;62290;59.420;17.842;2022-12-07T06:59:34;1.63;;;1.00;;
14292;SDS011;62290;59.420;17.842;2022-12-07T07:02:01;2.92;;;1.52;;
14292;SDS011;62290;59.420;17.842;2022-12-07T07:04:30;2.63;;;1.10;;
14292;SDS011;62290;59.420;17.842;2022-12-07T07:06:59;2.83;;;1.05;;
14292;SDS011;62290;59.420;17.842;2022-12-07T07:09:27;1.80;;;1.00;;
14292;SDS011;62290;59.420;17.842;2022-12-07T07:11:55;2.55;;;1.38;;
14292;SDS011;62290;59.420;17.842;2022-12-07T07:14:23;1.20;;;1.05;;
14292;SDS011;62290;59.420;17.842;2022-12-07T07:16:51;2.78;;;1.27;;
14292;SDS011;62290;59.420;17.842;2022-12-07T07:19:19;4.57;;;1.33;;
14292;SDS011;62290;59.420;17.842;2022-12-07T07:21:48;1.38;;;1.10;;
14292;SDS011;62290;59.420;17.842;2022-12-07T07:24:17;4.03;;;1.15;;
14292;SDS011;62290;59.420;17.842;2022-12-07T07:26:45;2.28;;;1.08;;
14292;SDS011;62290;59.420;17.842;2022-12-07T07:29:13;2.92;;;1.08;;
14292;SDS011;62290;59.420;17.842;2022-12-07T07:31:41;1.70;;;0.88;;
14292;SDS011;62290;59.420;17.842;2022-12-07T07:34:09;2.33;;;1.10;;
14292;SDS011;62290;59.420;17.842;2022-12-07T07:36:37;2.88;;;1.00;;
14292;SDS011;62290;59.420;17.842;2022-12-07T07:39:05;4.50;;;1.08;;
14292;SDS011;62290;59.420;17.842;2022-12-07T07:41:34;6.15;;;1.15;;
14292;SDS011;62290;59.420;17.842;2022-12-07T07:44:02;3.60;;;1.05;;
14292;SDS011;62290;59.420;17.842;2022-12-07T07:46:30;2.22;;;1.02;;
14292;SDS011;62290;59.420;17.842;2022-12-07T07:48:59;3.03;;;1.15;;
14292;SDS011;62290;59.420;17.842;2022-12-07T07:51:27;8.68;;;1.10;;
14292;SDS011;62290;59.420;17.842;2022-12-07T07:53:55;2.05;;;1.52;;
14292;SDS011;62290;59.420;17.842;2022-12-07T07:56:23;4.63;;;0.85;;
14292;SDS011;62290;59.420;17.842;2022-12-07T07:58:52;4.40;;;1.05;;
14292;SDS011;62290;59.420;17.842;2022-12-07T08:01:20;1.88;;;0.82;;
14292;SDS011;62290;59.420;17.842;2022-12-07T08:03:49;7.35;;;1.20;;
14292;SDS011;62290;59.420;17.842;2022-12-07T08:06:17;3.10;;;1.48;;
14292;SDS011;62290;59.420;17.842;2022-12-07T08:08:45;7.38;;;1.23;;
14292;SDS011;62290;59.420;17.842;2022-12-07T08:11:13;1.95;;;0.80;;
14292;SDS011;62290;59.420;17.842;2022-12-07T08:13:41;5.95;;;1.00;;
14292;SDS011;62290;59.420;17.842;2022-12-07T08:16:10;1.30;;;0.88;;
14292;SDS011;62290;59.420;17.842;2022-12-07T08:18:39;4.22;;;0.80;;
14292;SDS011;62290;59.420;17.842;2022-12-07T08:21:09;1.35;;;0.93;;
14292;SDS011;62290;59.420;17.842;2022-12-07T08:23:39;3.03;;;1.20;;
14292;SDS011;62290;59.420;17.842;2022-12-07T08:26:09;2.00;;;0.93;;
14292;SDS011;62290;59.420;17.842;2022-12-07T08:28:37;3.45;;;0.82;;
14292;SDS011;62290;59.420;17.842;2022-12-07T08:31:06;1.88;;;0.80;;
14292;SDS011;62290;59.420;17.842;2022-12-07T08:33:37;1.58;;;0.95;;
14292;SDS011;62290;59.420;17.842;2022-12-07T08:36:06;2.33;;;0.95;;
14292;SDS011;62290;59.420;17.842;2022-12-07T08:38:37;2.38;;;1.50;;
14292;SDS011;62290;59.420;17.842;2022-12-07T08:41:06;2.38;;;1.08;;
14292;SDS011;62290;59.420;17.842;2022-12-07T08:43:34;1.23;;;0.90;;
14292;SDS011;62290;59.420;17.842;2022-12-07T08:46:05;4.50;;;1.08;;
14292;SDS011;62290;59.420;17.842;2022-12-07T08:48:40;2.15;;;1.00;;
14292;SDS011;62290;59.420;17.842;2022-12-07T08:51:11;2.75;;;0.93;;
14292;SDS011;62290;59.420;17.842;2022-12-07T08:53:40;3.85;;;1.20;;
14292;SDS011;62290;59.420;17.842;2022-12-07T08:56:08;1.00;;;0.77;;
14292;SDS011;62290;59.420;17.842;2022-12-07T08:58:37;1.45;;;1.02;;
14292;SDS011;62290;59.420;17.842;2022-12-07T09:01:05;3.65;;;0.75;;
14292;SDS011;62290;59.420;17.842;2022-12-07T09:03:33;1.48;;;0.90;;
14292;SDS011;62290;59.420;17.842;2022-12-07T09:06:03;3.22;;;1.05;;
14292;SDS011;62290;59.420;17.842;2022-12-07T09:08:33;2.30;;;0.93;;
14292;SDS011;62290;59.420;17.842;2022-12-07T09:11:04;3.17;;;1.00;;
14292;SDS011;62290;59.420;17.842;2022-12-07T09:13:32;2.17;;;0.80;;
14292;SDS011;62290;59.420;17.842;2022-12-07T09:16:00;3.33;;;1.00;;
14292;SDS011;62290;59.420;17.842;2022-12-07T09:18:28;1.25;;;0.75;;
14292;SDS011;62290;59.420;17.842;2022-12-07T09:20:56;2.35;;;0.85;;
14292;SDS011;62290;59.420;17.842;2022-12-07T09:23:25;1.38;;;0.90;;
14292;SDS011;62290;59.420;17.842;2022-12-07T09:25:53;1.58;;;0.85;;
14292;SDS011;62290;59.420;17.842;2022-12-07T09:28:21;2.50;;;0.90;;
14292;SDS011;62290;59.420;17.842;2022-12-07T09:30:49;3.65;;;1.15;;
14292;SDS011;62290;59.420;17.842;2022-12-07T09:33:37;2.25;;;0.90;;
14292;SDS011;62290;59.420;17.842;2022-12-07T09:36:05;1.13;;;0.77;;
14292;SDS011;62290;59.420;17.842;2022-12-07T09:38:36;3.88;;;1.00;;
14292;SDS011;62290;59.420;17.842;2022-12-07T09:41:05;1.17;;;0.68;;
14292;SDS011;62290;59.420;17.842;2022-12-07T09:43:35;1.80;;;0.80;;
14292;SDS011;62290;59.420;17.842;2022-12-07T09:46:04;2.10;;;0.90;;
14292;SDS011;62290;59.420;17.842;2022-12-07T09:48:33;2.05;;;0.90;;
14292;SDS011;62290;59.420;17.842;2022-12-07T09:51:10;2.45;;;0.80;;
14292;SDS011;62290;59.420;17.842;2022-12-07T09:53:50;2.17;;;0.70;;
14292;SDS011;62290;59.420;17.842;2022-12-07T09:56:19;1.30;;;0.68;;
14292;SDS011;62290;59.420;17.842;2022-12-07T09:58:49;2.70;;;0.90;;
14292;SDS011;62290;59.420;17.842;2022-12-07T10:01:19;1.75;;;0.70;;
14292;SDS011;62290;59.420;17.842;2022-12-07T10:03:49;1.90;;;0.90;;
14292;SDS011;62290;59.420;17.842;2022-12-07T10:06:19;1.75;;;0.60;;
14292;SDS011;62290;59.420;17.842;2022-12-07T10:08:47;1.40;;;0.70;;
14292;SDS011;62290;59.420;17.842;2022-12-07T10:11:17;4.70;;;0.88;;
14292;SDS011;62290;59.420;17.842;2022-12-07T10:13:45;1.90;;;0.70;;
14292;SDS011;62290;59.420;17.842;2022-12-07T10:16:31;0.85;;;0.70;;
14292;SDS011;62290;59.420;17.842;2022-12-07T10:19:17;0.77;;;0.60;;
14292;SDS011;62290;59.420;17.842;2022-12-07T10:22:02;2.35;;;1.00;;
14292;SDS011;62290;59.420;17.842;2022-12-07T10:24:31;1.15;;;0.65;;
14292;SDS011;62290;59.420;17.842;2022-12-07T10:27:00;12.68;;;0.90;;
14292;SDS011;62290;59.420;17.842;2022-12-07T10:29:29;1.10;;;0.70;;
14292;SDS011;62290;59.420;17.842;2022-12-07T10:31:59;1.77;;;0.70;;
14292;SDS011;62290;59.420;17.842;2022-12-07T10:34:30;0.70;;;0.57;;
14292;SDS011;62290;59.420;17.842;2022-12-07T10:37:13;2.80;;;0.60;;
14292;SDS011;62290;59.420;17.842;2022-12-07T10:39:43;1.88;;;0.65;;
14292;SDS011;62290;59.420;17.842;2022-12-07T10:42:18;1.85;;;0.73;;
14292;SDS011;62290;59.420;17.842;2022-12-07T10:44:47;1.67;;;0.70;;
14292;SDS011;62290;59.420;17.842;2022-12-07T10:47:20;1.48;;;0.60;;
14292;SDS011;62290;59.420;17.842;2022-12-07T10:50:02;2.70;;;0.75;;
14292;SDS011;62290;59.420;17.842;2022-12-07T10:52:46;4.13;;;0.90;;
14292;SDS011;62290;59.420;17.842;2022-12-07T10:55:33;3.95;;;0.80;;
14292;SDS011;62290;59.420;17.842;2022-12-07T10:58:18;2.20;;;1.00;;
14292;SDS011;62290;59.420;17.842;2022-12-07T11:01:04;4.15;;;1.35;;
14292;SDS011;62290;59.420;17.842;2022-12-07T11:03:46;7.40;;;1.80;;
14292;SDS011;62290;59.420;17.842;2022-12-07T11:06:25;8.25;;;2.20;;
14292;SDS011;62290;59.420;17.842;2022-12-07T11:09:00;6.72;;;2.67;;
14292;SDS011;62290;59.420;17.842;2022-12-07T11:11:44;12.60;;;4.10;;
14292;SDS011;62290;59.420;17.842;2022-12-07T11:14:21;10.98;;;6.53;;
14292;SDS011;62290;59.420;17.842;2022-12-07T11:16:56;18.63;;;8.93;;
14292;SDS011;62290;59.420;17.842;2022-12-07T11:19:39;12.95;;;9.60;;
14292;SDS011;62290;59.420;17.842;2022-12-07T11:22:19;16.70;;;10.18;;
14292;SDS011;62290;59.420;17.842;2022-12-07T11:24:55;21.95;;;9.90;;
14292;SDS011;62290;59.420;17.842;2022-12-07T11:27:32;16.90;;;10.65;;
14292;SDS011;62290;59.420;17.842;2022-12-07T11:30:11;19.60;;;15.68;;
14292;SDS011;62290;59.420;17.842;2022-12-07T11:32:50;102.38;;;86.07;;
14292;SDS011;62290;59.420;17.842;2022-12-07T11:35:30;65.80;;;50.17;;
14292;SDS011;62290;59.420;17.842;2022-12-07T11:38:07;52.30;;;37.85;;
14292;SDS011;62290;59.420;17.842;2022-12-07T11:40:40;43.17;;;32.25;;
14292;SDS011;62290;59.420;17.842;2022-12-07T11:43:13;39.17;;;27.45;;
14292;SDS011;62290;59.420;17.842;2022-12-07T11:45:47;36.47;;;24.58;;
14292;SDS011;62290;59.420;17.842;2022-12-07T11:48:22;26.67;;;20.67;;
14292;SDS011;62290;59.420;17.842;2022-12-07T11:50:58;22.15;;;17.02;;
14292;SDS011;62290;59.420;17.842;2022-12-07T11:53:29;19.65;;;14.38;;
14292;SDS011;62290;59.420;17.842;2022-12-07T11:56:03;13.73;;;11.85;;
14292;SDS011;62290;59.420;17.842;2022-12-07T11:58:49;15.52;;;11.45;;
14292;SDS011;62290;59.420;17.842;2022-12-07T12:01:29;12.55;;;9.70;;
14292;SDS011;62290;59.420;17.842;2022-12-07T12:04:13;10.85;;;8.68;;
14292;SDS011;62290;59.420;17.842;2022-12-07T12:06:51;11.05;;;8.20;;
14292;SDS011;62290;59.420;17.842;2022-12-07T12:09:21;7.97;;;7.15;;
14292;SDS011;62290;59.420;17.842;2022-12-07T12:12:07;10.23;;;7.70;;
14292;SDS011;62290;59.420;17.842;2022-12-07T12:15:16;9.85;;;7.00;;
14292;SDS011;62290;59.420;17.842;2022-12-07T12:18:04;8.35;;;5.85;;
14292;SDS011;62290;59.420;17.842;2022-12-07T12:20:43;7.18;;;5.07;;
14292;SDS011;62290;59.420;17.842;2022-12-07T12:23:17;7.38;;;5.15;;
14292;SDS011;62290;59.420;17.842;2022-12-07T12:25:49;5.88;;;4.60;;
14292;SDS011;62290;59.420;17.842;2022-12-07T12:28:22;6.38;;;5.00;;
14292;SDS011;62290;59.420;17.842;2022-12-07T12:31:07;6.90;;;4.60;;
14292;SDS011;62290;59.420;17.842;2022-12-07T12:33:43;4.97;;;4.10;;
14292;SDS011;62290;59.420;17.842;2022-12-07T12:36:18;9.32;;;3.80;;
14292;SDS011;62290;59.420;17.842;2022-12-07T12:38:51;3.88;;;3.45;;
14292;SDS011;62290;59.420;17.842;2022-12-07T12:41:54;6.43;;;4.03;;
14292;SDS011;62290;59.420;17.842;2022-12-07T12:47:41;4.30;;;2.80;;
14292;SDS011;62290;59.420;17.842;2022-12-07T12:50:29;3.00;;;2.60;;
14292;SDS011;62290;59.420;17.842;2022-12-07T12:55:56;3.50;;;2.50;;
14292;SDS011;62290;59.420;17.842;2022-12-07T12:58:42;4.45;;;2.70;;
14292;SDS011;62290;59.420;17.842;2022-12-07T13:10:33;3.45;;;2.22;;
14292;SDS011;62290;59.420;17.842;2022-12-07T13:13:05;4.93;;;1.98;;
14292;SDS011;62290;59.420;17.842;2022-12-07T13:15:51;4.72;;;2.10;;
14292;SDS011;62290;59.420;17.842;2022-12-07T13:18:24;3.17;;;1.80;;
14292;SDS011;62290;59.420;17.842;2022-12-07T13:21:02;2.95;;;1.80;;
14292;SDS011;62290;59.420;17.842;2022-12-07T13:23:55;15.30;;;4.07;;
14292;SDS011;62290;59.420;17.842;2022-12-07T13:26:33;11.25;;;3.75;;
14292;SDS011;62290;59.420;17.842;2022-12-07T13:29:05;8.13;;;3.15;;
14292;SDS011;62290;59.420;17.842;2022-12-07T13:31:38;6.78;;;2.88;;
14292;SDS011;62290;59.420;17.842;2022-12-07T13:36:58;5.57;;;2.33;;
14292;SDS011;62290;59.420;17.842;2022-12-07T13:39:32;3.75;;;2.00;;
14292;SDS011;62290;59.420;17.842;2022-12-07T13:42:06;4.70;;;1.60;;
14292;SDS011;62290;59.420;17.842;2022-12-07T13:44:39;3.20;;;1.70;;
14292;SDS011;62290;59.420;17.842;2022-12-07T13:47:10;3.55;;;2.15;;
14292;SDS011;62290;59.420;17.842;2022-12-07T13:49:46;4.68;;;1.90;;
14292;SDS011;62290;59.420;17.842;2022-12-07T13:52:20;3.20;;;1.83;;
14292;SDS011;62290;59.420;17.842;2022-12-07T13:54:56;4.03;;;1.80;;
14292;SDS011;62290;59.420;17.842;2022-12-07T13:57:27;3.42;;;1.60;;
14292;SDS011;62290;59.420;17.842;2022-12-07T13:59:57;5.03;;;1.35;;
14292;SDS011;62290;59.420;17.842;2022-12-07T14:02:27;3.95;;;1.42;;
14292;SDS011;62290;59.420;17.842;2022-12-07T14:05:07;3.85;;;1.33;;
14292;SDS011;62290;59.420;17.842;2022-12-07T14:07:47;3.42;;;1.20;;
14292;SDS011;62290;59.420;17.842;2022-12-07T14:10:25;3.40;;;1.23;;
14292;SDS011;62290;59.420;17.842;2022-12-07T14:12:54;2.08;;;1.20;;
14292;SDS011;62290;59.420;17.842;2022-12-07T14:15:23;3.38;;;1.10;;
14292;SDS011;62290;59.420;17.842;2022-12-07T14:17:54;2.15;;;1.20;;
14292;SDS011;62290;59.420;17.842;2022-12-07T14:20:30;3.47;;;1.40;;
14292;SDS011;62290;59.420;17.842;2022-12-07T14:22:59;3.55;;;1.40;;
14292;SDS011;62290;59.420;17.842;2022-12-07T14:25:45;2.63;;;1.25;;
14292;SDS011;62290;59.420;17.842;2022-12-07T14:28:26;5.00;;;1.25;;
14292;SDS011;62290;59.420;17.842;2022-12-07T14:30:56;2.65;;;1.27;;
14292;SDS011;62290;59.420;17.842;2022-12-07T14:33:25;3.25;;;1.00;;
14292;SDS011;62290;59.420;17.842;2022-12-07T14:35:54;2.85;;;1.20;;
14292;SDS011;62290;59.420;17.842;2022-12-07T14:38:24;2.88;;;0.98;;
14292;SDS011;62290;59.420;17.842;2022-12-07T14:40:55;2.05;;;1.20;;
14292;SDS011;62290;59.420;17.842;2022-12-07T14:43:44;5.68;;;1.38;;
14292;SDS011;62290;59.420;17.842;2022-12-07T14:46:32;2.35;;;1.20;;
14292;SDS011;62290;59.420;17.842;2022-12-07T14:49:00;2.22;;;1.10;;
14292;SDS011;62290;59.420;17.842;2022-12-07T14:51:48;3.92;;;0.93;;
14292;SDS011;62290;59.420;17.842;2022-12-07T14:54:36;4.60;;;1.30;;
14292;SDS011;62290;59.420;17.842;2022-12-07T14:57:06;2.47;;;1.20;;
14292;SDS011;62290;59.420;17.842;2022-12-07T14:59:35;5.20;;;1.30;;
14292;SDS011;62290;59.420;17.842;2022-12-07T15:02:10;4.15;;;1.20;;
14292;SDS011;62290;59.420;17.842;2022-12-07T15:04:39;1.95;;;1.05;;
14292;SDS011;62290;59.420;17.842;2022-12-07T15:07:10;3.13;;;1.33;;
14292;SDS011;62290;59.420;17.842;2022-12-07T15:09:43;2.30;;;1.20;;
14292;SDS011;62290;59.420;17.842;2022-12-07T15:12:12;2.05;;;1.08;;
14292;SDS011;62290;59.420;17.842;2022-12-07T15:14:40;3.38;;;1.13;;
14292;SDS011;62290;59.420;17.842;2022-12-07T15:17:09;8.95;;;1.40;;
14292;SDS011;62290;59.420;17.842;2022-12-07T15:19:53;2.85;;;1.10;;
14292;SDS011;62290;59.420;17.842;2022-12-07T15:22:21;2.50;;;1.20;;